createdAt,value
2023-04-12T00:00:12.577Z,10.96
2023-04-12T00:02:44.047Z,11.13
2023-04-12T00:05:17.920Z,11.79
2023-04-12T00:07:49.114Z,11.75
2023-04-12T00:10:19.248Z,11.29
2023-04-12T00:12:50.990Z,11.59
2023-04-12T00:15:19.338Z,11.17
2023-04-12T00:17:50.882Z,11.45
2023-04-12T00:20:18.765Z,11.31
2023-04-12T00:22:46.956Z,11.16
2023-04-12T00:25:15.271Z,11.56
2023-04-12T00:27:44.925Z,10.90
2023-04-12T00:30:13.609Z,10.75
2023-04-12T00:32:49.664Z,11.27
2023-04-12T00:35:21.191Z,11.26
2023-04-12T00:37:51.842Z,11.53
2023-04-12T00:40:19.636Z,11.89
2023-04-12T00:42:51.347Z,12.07
2023-04-12T00:45:19.802Z,12.05
2023-04-12T00:47:57.513Z,11.97
2023-04-12T00:50:25.920Z,11.74
2023-04-12T00:53:01.629Z,11.56
2023-04-12T00:55:30.847Z,11.53
2023-04-12T00:58:10.856Z,11.11
2023-04-12T01:00:42.260Z,12.05
2023-04-12T01:03:12.301Z,11.73
2023-04-12T01:05:46.683Z,11.89
2023-04-12T01:08:26.131Z,12.32
2023-04-12T01:11:02.763Z,12.27
2023-04-12T01:13:38.105Z,12.35
2023-04-12T01:16:10.775Z,11.84
2023-04-12T01:18:46.199Z,12.08
2023-04-12T01:21:25.226Z,12.13
2023-04-12T01:24:06.441Z,12.02
2023-04-12T01:26:40.822Z,11.92
2023-04-12T01:29:13.070Z,12.24
2023-04-12T01:31:43.175Z,12.58
2023-04-12T01:34:13.125Z,12.67
2023-04-12T01:36:45.916Z,12.29
2023-04-12T01:39:20.138Z,12.55
2023-04-12T01:41:49.955Z,12.58
2023-04-12T01:44:23.059Z,11.69
2023-04-12T01:46:53.174Z,11.24
2023-04-12T01:49:23.943Z,11.13
2023-04-12T01:51:56.709Z,11.09
2023-04-12T01:54:36.106Z,11.13
2023-04-12T01:57:05.611Z,10.02
2023-04-12T01:59:37.768Z,11.34
2023-04-12T02:02:09.350Z,10.91
2023-04-12T02:04:38.333Z,10.93
2023-04-12T02:07:09.553Z,11.08
2023-04-12T02:09:38.500Z,11.67
2023-04-12T02:12:09.234Z,11.76
2023-04-12T02:14:46.531Z,11.25
2023-04-12T02:17:17.768Z,11.66
2023-04-12T02:19:48.445Z,11.48
2023-04-12T02:22:17.621Z,11.49
2023-04-12T02:24:46.557Z,11.72
2023-04-12T02:27:15.565Z,11.47
2023-04-12T02:29:48.810Z,10.48
2023-04-12T02:32:18.800Z,11.18
2023-04-12T02:34:53.247Z,11.29
2023-04-12T02:37:24.487Z,11.71
2023-04-12T02:39:52.601Z,11.11
2023-04-12T02:42:22.761Z,10.70
2023-04-12T02:44:57.007Z,10.72
2023-04-12T02:47:28.804Z,11.23
2023-04-12T02:49:57.210Z,11.15
2023-04-12T02:52:26.001Z,11.29
2023-04-12T02:54:56.636Z,11.71
2023-04-12T02:57:29.744Z,11.90
2023-04-12T03:00:07.716Z,11.85
2023-04-12T03:02:36.519Z,11.44
2023-04-12T03:05:05.310Z,11.55
2023-04-12T03:07:34.078Z,11.55
2023-04-12T03:10:06.840Z,11.52
2023-04-12T03:12:43.565Z,11.83
2023-04-12T03:15:14.305Z,11.23
2023-04-12T03:17:45.317Z,11.17
2023-04-12T03:20:18.126Z,11.64
2023-04-12T03:22:50.739Z,11.31
2023-04-12T03:25:27.450Z,11.63
2023-04-12T03:27:55.485Z,11.89
2023-04-12T03:30:29.176Z,11.78
2023-04-12T03:33:08.446Z,11.54
2023-04-12T03:35:43.947Z,11.81
2023-04-12T03:38:18.169Z,11.02
2023-04-12T03:40:48.784Z,11.81
2023-04-12T03:43:21.497Z,11.34
2023-04-12T03:45:51.097Z,11.55
2023-04-12T03:48:20.687Z,11.04
2023-04-12T03:50:51.459Z,11.49
2023-04-12T03:53:21.620Z,11.63
2023-04-12T03:55:49.407Z,12.02
2023-04-12T03:58:19.435Z,11.65
2023-04-12T04:00:55.395Z,12.05
2023-04-12T04:03:30.935Z,11.85
2023-04-12T04:05:59.456Z,12.19
2023-04-12T04:08:27.504Z,11.95
2023-04-12T04:11:01.375Z,11.70
2023-04-12T04:13:29.573Z,11.52
2023-04-12T04:16:04.296Z,11.72
2023-04-12T04:18:32.933Z,11.91
2023-04-12T04:21:08.730Z,12.07
2023-04-12T04:23:40.810Z,11.76
2023-04-12T04:26:13.506Z,11.52
2023-04-12T04:28:45.224Z,11.53
2023-04-12T04:31:24.021Z,11.66
2023-04-12T04:33:54.991Z,11.17
2023-04-12T04:36:28.806Z,11.47
2023-04-12T04:38:58.645Z,11.30
2023-04-12T04:41:27.105Z,11.82
2023-04-12T04:43:55.594Z,11.19
2023-04-12T04:46:25.862Z,11.47
2023-04-12T04:48:55.173Z,11.78
2023-04-12T04:51:22.957Z,11.09
2023-04-12T04:53:51.126Z,11.02
2023-04-12T04:56:23.464Z,10.76
2023-04-12T04:58:57.084Z,11.17
2023-04-12T05:01:28.866Z,11.54
2023-04-12T05:04:14.897Z,10.14
2023-04-12T05:06:45.039Z,9.65
2023-04-12T05:09:19.517Z,11.23
2023-04-12T05:11:47.607Z,11.27
2023-04-12T05:14:23.592Z,11.51
2023-04-12T05:16:57.616Z,10.63
2023-04-12T05:19:29.956Z,10.93
2023-04-12T05:22:02.195Z,11.22
2023-04-12T05:24:33.345Z,10.71
2023-04-12T05:27:01.755Z,10.83
2023-04-12T05:29:31.941Z,10.77
2023-04-12T05:32:04.295Z,10.59
2023-04-12T05:34:38.930Z,10.70
2023-04-12T05:37:08.508Z,10.50
2023-04-12T05:39:36.726Z,10.54
2023-04-12T05:42:05.617Z,10.72
2023-04-12T05:44:39.908Z,10.48
2023-04-12T05:47:12.970Z,11.06
2023-04-12T05:49:42.436Z,10.66
2023-04-12T05:52:11.785Z,11.48
2023-04-12T05:54:42.108Z,11.38
2023-04-12T05:57:12.960Z,11.27
2023-04-12T05:59:43.542Z,11.08
2023-04-12T06:02:14.842Z,11.37
2023-04-12T06:04:50.167Z,11.03
2023-04-12T06:07:21.637Z,10.85
2023-04-12T06:09:50.865Z,10.77
2023-04-12T06:12:19.945Z,10.57
2023-04-12T06:14:48.119Z,10.79
2023-04-12T06:17:18.671Z,10.90
2023-04-12T06:19:47.058Z,10.73
2023-04-12T06:22:17.396Z,10.61
2023-04-12T06:24:48.212Z,9.52
2023-04-12T06:27:17.192Z,11.01
2023-04-12T06:29:48.786Z,10.74
2023-04-12T06:32:18.454Z,9.41
2023-04-12T06:34:46.811Z,10.51
2023-04-12T06:37:16.613Z,10.75
2023-04-12T06:39:47.604Z,10.74
2023-04-12T06:42:17.030Z,10.76
2023-04-12T06:44:48.007Z,10.95
2023-04-12T06:47:17.344Z,10.92
2023-04-12T06:49:45.311Z,10.98
2023-04-12T06:52:14.778Z,10.85
2023-04-12T06:54:42.834Z,10.99
2023-04-12T06:57:13.730Z,11.08
2023-04-12T06:59:41.512Z,11.03
2023-04-12T07:02:10.636Z,10.38
2023-04-12T07:04:40.589Z,11.37
2023-04-12T07:07:08.997Z,11.31
2023-04-12T07:09:38.198Z,11.43
2023-04-12T07:12:06.685Z,11.19
2023-04-12T07:14:37.902Z,10.65
2023-04-12T07:17:06.241Z,11.00
2023-04-12T07:19:34.964Z,11.19
2023-04-12T07:22:07.916Z,10.82
2023-04-12T07:24:38.828Z,11.08
2023-04-12T07:27:11.547Z,10.64
2023-04-12T07:29:43.266Z,11.21
2023-04-12T07:32:14.774Z,11.11
2023-04-12T07:34:45.370Z,11.08
2023-04-12T07:37:18.339Z,11.16
2023-04-12T07:39:48.158Z,11.02
2023-04-12T07:42:16.378Z,11.03
2023-04-12T07:44:46.660Z,10.84
2023-04-12T07:47:17.439Z,11.48
2023-04-12T07:49:51.379Z,11.65
2023-04-12T07:52:21.068Z,11.81
2023-04-12T07:54:49.678Z,11.08
2023-04-12T07:57:20.358Z,11.32
2023-04-12T07:59:49.864Z,11.30
2023-04-12T08:02:24.807Z,11.79
2023-04-12T08:04:55.543Z,11.51
2023-04-12T08:07:27.665Z,11.58
2023-04-12T08:09:56.216Z,11.57
2023-04-12T08:12:25.971Z,11.66
2023-04-12T08:14:58.075Z,11.63
2023-04-12T08:17:32.308Z,11.88
2023-04-12T08:20:09.150Z,10.17
2023-04-12T08:22:42.836Z,11.74
2023-04-12T08:25:17.559Z,12.02
2023-04-12T08:27:47.094Z,12.29
2023-04-12T08:30:16.828Z,11.63
2023-04-12T08:32:45.090Z,11.74
2023-04-12T08:35:13.562Z,11.62
2023-04-12T08:37:44.171Z,12.04
2023-04-12T08:40:19.364Z,11.80
2023-04-12T08:42:48.597Z,12.23
2023-04-12T08:45:19.594Z,12.19
2023-04-12T08:47:48.478Z,12.20
2023-04-12T08:50:19.700Z,12.54
2023-04-12T08:52:51.155Z,12.11
2023-04-12T08:55:25.608Z,11.79
2023-04-12T08:57:57.617Z,11.46
2023-04-12T09:00:28.534Z,11.45
2023-04-12T09:02:57.050Z,11.70
2023-04-12T09:05:30.378Z,11.89
2023-04-12T09:08:01.781Z,12.01
2023-04-12T09:10:34.438Z,11.78
2023-04-12T09:13:04.175Z,11.83
2023-04-12T09:15:34.665Z,11.94
2023-04-12T09:18:08.126Z,11.58
2023-04-12T09:20:38.198Z,11.77
2023-04-12T09:23:22.709Z,12.08
2023-04-12T09:25:54.461Z,12.29
2023-04-12T09:28:28.426Z,11.78
2023-04-12T09:30:57.950Z,12.47
2023-04-12T09:33:34.942Z,12.44
2023-04-12T09:36:04.446Z,12.26
2023-04-12T09:38:46.386Z,12.28
2023-04-12T09:41:35.499Z,9.04
2023-04-12T09:44:07.965Z,12.37
2023-04-12T09:46:36.952Z,12.76
2023-04-12T09:49:10.012Z,12.24
2023-04-12T09:51:40.542Z,12.19
2023-04-12T09:54:12.347Z,12.49
2023-04-12T09:56:46.839Z,12.51
2023-04-12T09:59:27.371Z,12.38
2023-04-12T10:01:56.414Z,12.36
2023-04-12T10:04:26.711Z,12.70
2023-04-12T10:07:04.917Z,12.80
2023-04-12T10:09:35.250Z,12.45
2023-04-12T10:12:04.758Z,12.16
2023-04-12T10:14:33.948Z,12.74
2023-04-12T10:17:06.252Z,12.32
2023-04-12T10:19:35.387Z,12.79
2023-04-12T10:22:06.708Z,12.53
2023-04-12T10:24:38.068Z,12.11
2023-04-12T10:27:07.787Z,12.29
2023-04-12T10:29:38.359Z,12.71
2023-04-12T10:32:23.083Z,12.82
2023-04-12T10:34:55.407Z,12.91
2023-04-12T10:37:25.864Z,12.91
2023-04-12T10:39:56.449Z,12.76
2023-04-12T10:42:33.101Z,12.83
2023-04-12T10:45:31.223Z,12.24
2023-04-12T10:48:04.535Z,12.32
2023-04-12T10:50:35.665Z,12.75
2023-04-12T10:53:26.260Z,13.06
2023-04-12T10:56:02.888Z,13.04
2023-04-12T10:58:57.030Z,13.18
2023-04-12T11:01:31.960Z,12.85
2023-04-12T11:04:11.853Z,12.90
2023-04-12T11:07:01.926Z,12.63
2023-04-12T11:09:32.065Z,12.74
2023-04-12T11:12:15.005Z,13.07
2023-04-12T11:14:53.182Z,12.65
2023-04-12T11:17:28.753Z,13.00
2023-04-12T11:20:05.289Z,12.69
2023-04-12T11:22:37.045Z,12.79
2023-04-12T11:25:06.001Z,13.03
2023-04-12T11:27:40.220Z,13.53
2023-04-12T11:30:11.202Z,13.25
2023-04-12T11:32:41.859Z,13.82
2023-04-12T11:35:11.120Z,14.10
2023-04-12T11:37:39.999Z,14.05
2023-04-12T11:40:14.603Z,14.01
2023-04-12T11:42:45.516Z,14.06
2023-04-12T11:45:18.317Z,13.94
2023-04-12T11:47:47.164Z,13.25
2023-04-12T11:50:30.016Z,13.50
2023-04-12T11:53:11.369Z,13.60
2023-04-12T11:55:39.599Z,13.65
2023-04-12T11:58:09.760Z,13.50
2023-04-12T12:00:39.155Z,13.57
2023-04-12T12:03:08.825Z,13.38
2023-04-12T12:05:40.924Z,14.13
2023-04-12T12:08:09.579Z,13.77
2023-04-12T12:10:46.945Z,14.38
2023-04-12T12:13:31.814Z,14.69
2023-04-12T12:16:01.371Z,14.97
2023-04-12T12:18:30.371Z,14.50
2023-04-12T12:21:01.612Z,14.23
2023-04-12T12:26:28.078Z,14.18
2023-04-12T12:29:01.476Z,14.55
2023-04-12T12:31:31.222Z,14.78
2023-04-12T12:34:01.207Z,14.30
2023-04-12T12:36:36.220Z,14.83
2023-04-12T12:39:07.384Z,15.14
2023-04-12T12:41:36.434Z,15.20
2023-04-12T12:44:07.296Z,15.37
2023-04-12T12:49:12.228Z,15.22
2023-04-12T12:51:43.055Z,15.11
2023-04-12T12:54:11.396Z,14.84
2023-04-12T12:56:41.720Z,14.29
2023-04-12T12:59:26.032Z,13.99
2023-04-12T13:01:54.566Z,14.56
2023-04-12T13:04:25.484Z,14.89
2023-04-12T13:06:58.227Z,14.91
2023-04-12T13:09:28.392Z,14.88
2023-04-12T13:12:00.087Z,14.64
2023-04-12T13:14:29.947Z,15.20
2023-04-12T13:17:03.030Z,15.05
2023-04-12T13:19:31.330Z,14.81
2023-04-12T13:22:02.419Z,14.97
2023-04-12T13:24:32.915Z,14.76
2023-04-12T13:27:03.426Z,15.27
2023-04-12T13:29:33.365Z,15.08
2023-04-12T13:32:04.298Z,15.01
2023-04-12T13:34:43.440Z,15.43
2023-04-12T13:37:11.403Z,15.28
2023-04-12T13:39:42.427Z,15.30
2023-04-12T13:42:13.346Z,15.29
2023-04-12T13:44:47.907Z,15.03
2023-04-12T13:47:18.680Z,15.45
2023-04-12T13:49:47.483Z,15.74
2023-04-12T13:52:15.741Z,15.04
2023-04-12T13:54:46.263Z,14.53
2023-04-12T13:57:17.511Z,14.61
2023-04-12T13:59:49.841Z,14.78
2023-04-12T14:02:18.068Z,14.86
2023-04-12T14:04:52.364Z,14.60
2023-04-12T14:07:22.725Z,14.03
2023-04-12T14:09:51.065Z,14.58
2023-04-12T14:12:23.101Z,14.85
2023-04-12T14:14:52.923Z,14.45
2023-04-12T14:17:21.440Z,14.73
2023-04-12T14:19:55.435Z,14.44
2023-04-12T14:22:26.286Z,14.90
2023-04-12T14:24:57.972Z,14.95
2023-04-12T14:27:27.840Z,15.20
2023-04-12T14:30:03.363Z,16.12
2023-04-12T14:32:31.911Z,15.92
2023-04-12T14:35:01.402Z,15.95
2023-04-12T14:37:29.872Z,15.62
2023-04-12T14:40:01.009Z,15.16
2023-04-12T14:42:29.081Z,15.08
2023-04-12T14:45:00.924Z,14.99
2023-04-12T14:47:29.496Z,14.83
2023-04-12T14:49:57.867Z,14.79
2023-04-12T14:52:26.228Z,14.82
2023-04-12T14:54:54.896Z,15.36
2023-04-12T14:57:28.430Z,15.33
2023-04-12T15:00:02.925Z,14.67
2023-04-12T15:02:31.760Z,12.77
2023-04-12T15:05:11.425Z,11.54
2023-04-12T15:07:51.612Z,11.61
2023-04-12T15:10:20.915Z,11.47
2023-04-12T15:12:54.589Z,10.66
2023-04-12T15:15:27.650Z,11.45
2023-04-12T15:17:59.004Z,11.66
2023-04-12T15:20:28.049Z,11.46
2023-04-12T15:22:59.479Z,11.08
2023-04-12T15:25:28.549Z,11.25
2023-04-12T15:27:57.407Z,9.78
2023-04-12T15:30:29.823Z,11.19
2023-04-12T15:32:58.795Z,11.11
2023-04-12T15:35:27.627Z,11.35
2023-04-12T15:37:56.298Z,11.39
2023-04-12T15:40:25.963Z,11.65
2023-04-12T15:42:59.130Z,11.61
2023-04-12T15:45:32.311Z,11.44
2023-04-12T15:48:12.609Z,11.65
2023-04-12T15:50:44.187Z,12.07
2023-04-12T15:53:12.740Z,12.74
2023-04-12T15:55:48.159Z,12.68
2023-04-12T15:58:16.249Z,12.62
2023-04-12T16:00:45.978Z,13.27
2023-04-12T16:03:18.161Z,10.97
2023-04-12T16:05:47.534Z,12.50
2023-04-12T16:08:17.192Z,12.44
2023-04-12T16:10:55.266Z,13.13
2023-04-12T16:13:24.021Z,12.95
2023-04-12T16:15:56.589Z,12.88
2023-04-12T16:18:27.685Z,13.41
2023-04-12T16:20:55.848Z,12.69
2023-04-12T16:23:28.276Z,12.62
2023-04-12T16:25:57.870Z,13.47
2023-04-12T16:28:34.317Z,13.12
2023-04-12T16:31:07.250Z,13.54
2023-04-12T16:33:37.354Z,13.17
2023-04-12T16:36:06.968Z,13.26
2023-04-12T16:38:35.513Z,13.35
2023-04-12T16:41:09.806Z,12.95
2023-04-12T16:43:44.032Z,13.23
2023-04-12T16:46:16.623Z,13.30
2023-04-12T16:48:45.443Z,13.25
2023-04-12T16:51:13.531Z,13.38
2023-04-12T16:53:41.533Z,13.31
2023-04-12T16:56:09.567Z,12.99
2023-04-12T16:58:37.995Z,13.41
2023-04-12T17:01:08.020Z,12.80
2023-04-12T17:03:41.021Z,13.24
2023-04-12T17:06:12.109Z,12.67
2023-04-12T17:08:43.590Z,13.03
2023-04-12T17:11:13.023Z,12.82
2023-04-12T17:13:46.419Z,11.51
2023-04-12T17:16:17.808Z,12.52
2023-04-12T17:18:54.830Z,12.23
2023-04-12T17:21:23.280Z,12.26
2023-04-12T17:23:54.542Z,12.57
2023-04-12T17:26:27.436Z,12.25
2023-04-12T17:28:56.935Z,12.39
2023-04-12T17:31:35.839Z,11.69
2023-04-12T17:34:05.779Z,12.18
2023-04-12T17:36:35.552Z,12.10
2023-04-12T17:39:05.356Z,12.26
2023-04-12T17:41:36.022Z,10.69
2023-04-12T17:44:08.212Z,12.15
2023-04-12T17:46:37.055Z,12.59
2023-04-12T17:49:11.383Z,12.79
2023-04-12T17:51:40.667Z,12.97
2023-04-12T17:54:13.896Z,13.06
2023-04-12T17:56:42.987Z,13.75
2023-04-12T17:59:11.813Z,13.28
2023-04-12T18:01:40.138Z,13.75
2023-04-12T18:04:14.723Z,12.68
2023-04-12T18:06:48.277Z,12.64
2023-04-12T18:09:23.729Z,12.69
2023-04-12T18:11:52.979Z,12.30
2023-04-12T18:14:40.619Z,12.16
2023-04-12T18:17:11.977Z,12.05
2023-04-12T18:19:41.886Z,12.17
2023-04-12T18:22:10.064Z,12.41
2023-04-12T18:24:41.790Z,12.71
2023-04-12T18:27:10.051Z,12.66
2023-04-12T18:29:38.286Z,12.73
2023-04-12T18:32:06.813Z,12.38
2023-04-12T18:34:34.844Z,12.56
2023-04-12T18:37:06.005Z,12.18
2023-04-12T18:39:37.042Z,11.68
2023-04-12T18:42:05.949Z,11.89
2023-04-12T18:44:34.684Z,12.11
2023-04-12T18:47:07.351Z,12.01
2023-04-12T18:49:38.645Z,11.94
2023-04-12T18:52:08.698Z,11.98
2023-04-12T18:54:53.569Z,11.60
2023-04-12T18:57:24.804Z,11.52
2023-04-12T18:59:53.634Z,11.64
2023-04-12T19:02:28.463Z,11.52
2023-04-12T19:04:56.708Z,11.49
2023-04-12T19:07:26.588Z,11.58
2023-04-12T19:09:54.951Z,11.97
2023-04-12T19:12:28.026Z,11.99
2023-04-12T19:14:56.198Z,12.01
2023-04-12T19:17:37.793Z,12.08
2023-04-12T19:20:09.334Z,11.64
2023-04-12T19:22:48.035Z,12.02
2023-04-12T19:25:18.934Z,12.34
2023-04-12T19:27:53.010Z,12.42
2023-04-12T19:30:22.063Z,11.87
2023-04-12T19:32:56.156Z,11.75
2023-04-12T19:35:32.944Z,11.40
2023-04-12T19:38:06.132Z,11.90
2023-04-12T19:40:34.163Z,11.42
2023-04-12T19:43:05.772Z,11.68
2023-04-12T19:45:35.557Z,11.44
2023-04-12T19:48:05.518Z,11.43
2023-04-12T19:50:36.103Z,11.62
2023-04-12T19:53:07.277Z,11.14
2023-04-12T19:55:36.246Z,11.16
2023-04-12T19:58:09.158Z,10.86
2023-04-12T20:00:41.439Z,10.74
2023-04-12T20:03:25.413Z,10.89
2023-04-12T20:05:59.514Z,10.63
2023-04-12T20:08:30.281Z,10.41
2023-04-12T20:10:58.645Z,10.99
2023-04-12T20:13:30.858Z,10.88
2023-04-12T20:16:03.433Z,10.90
2023-04-12T20:18:33.479Z,10.75
2023-04-12T20:21:01.804Z,10.86
2023-04-12T20:23:34.397Z,11.02
2023-04-12T20:26:02.925Z,10.74
2023-04-12T20:28:38.067Z,10.25
2023-04-12T20:31:17.080Z,10.04
2023-04-12T20:33:49.054Z,10.39
2023-04-12T20:36:24.781Z,9.75
2023-04-12T20:39:01.740Z,9.42
2023-04-12T20:41:30.710Z,9.06
2023-04-12T20:44:01.264Z,9.02
2023-04-12T20:46:32.055Z,9.69
2023-04-12T20:49:03.318Z,9.52
2023-04-12T20:51:40.428Z,8.26
2023-04-12T20:54:11.565Z,10.16
2023-04-12T20:56:45.564Z,9.71
2023-04-12T20:59:13.431Z,9.77
2023-04-12T21:01:45.902Z,9.93
2023-04-12T21:04:15.832Z,9.53
2023-04-12T21:06:45.756Z,9.90
2023-04-12T21:09:18.686Z,9.46
2023-04-12T21:11:49.022Z,9.77
2023-04-12T21:14:19.767Z,9.76
2023-04-12T21:16:49.231Z,9.95
2023-04-12T21:19:26.627Z,10.24
2023-04-12T21:21:54.800Z,10.09
2023-04-12T21:24:28.334Z,10.42
2023-04-12T21:27:00.449Z,9.99
2023-04-12T21:29:40.131Z,9.73
2023-04-12T21:32:09.106Z,9.65
2023-04-12T21:34:39.581Z,9.36
2023-04-12T21:37:12.952Z,9.65
2023-04-12T21:39:44.455Z,9.54
2023-04-12T21:42:14.199Z,9.50
2023-04-12T21:44:42.794Z,9.73
2023-04-12T21:47:13.254Z,9.34
2023-04-12T21:49:46.267Z,9.38
2023-04-12T21:52:15.087Z,9.31
2023-04-12T21:54:50.829Z,9.40
2023-04-12T21:57:24.511Z,9.94
2023-04-12T21:59:52.744Z,9.50
2023-04-12T22:02:23.251Z,9.48
2023-04-12T22:04:54.724Z,9.56
2023-04-12T22:07:25.393Z,9.34
2023-04-12T22:10:08.731Z,9.52
2023-04-12T22:12:36.509Z,9.47
2023-04-12T22:15:14.783Z,9.41
2023-04-12T22:17:43.287Z,9.33
2023-04-12T22:20:15.308Z,9.28
2023-04-12T22:22:51.769Z,9.23
2023-04-12T22:25:24.213Z,9.42
2023-04-12T22:28:00.200Z,9.52
2023-04-12T22:30:30.668Z,9.89
2023-04-12T22:33:08.889Z,9.61
2023-04-12T22:35:43.356Z,9.54
2023-04-12T22:38:16.494Z,9.59
2023-04-12T22:40:48.388Z,9.82
2023-04-12T22:43:19.088Z,9.80
2023-04-12T22:45:49.403Z,9.93
2023-04-12T22:48:21.698Z,9.91
2023-04-12T22:50:51.030Z,9.43
2023-04-12T22:53:19.350Z,9.67
2023-04-12T22:55:50.081Z,9.46
2023-04-12T22:58:18.499Z,9.80
2023-04-12T23:00:49.497Z,10.16
2023-04-12T23:03:31.749Z,10.30
2023-04-12T23:06:00.457Z,10.31
2023-04-12T23:08:31.679Z,10.43
2023-04-12T23:11:04.686Z,9.92
2023-04-12T23:13:34.742Z,10.75
2023-04-12T23:16:05.435Z,10.74
2023-04-12T23:18:33.873Z,10.91
2023-04-12T23:21:03.067Z,10.97
2023-04-12T23:23:34.659Z,10.54
2023-04-12T23:26:08.546Z,10.80
2023-04-12T23:28:37.713Z,11.24
2023-04-12T23:31:07.261Z,10.78
2023-04-12T23:33:35.209Z,11.00
2023-04-12T23:36:06.228Z,10.95
2023-04-12T23:38:39.174Z,11.55
2023-04-12T23:41:14.073Z,11.24
2023-04-12T23:43:42.516Z,11.14
2023-04-12T23:46:11.347Z,10.72
2023-04-12T23:48:44.327Z,10.29
2023-04-12T23:51:15.060Z,10.42
2023-04-12T23:53:43.153Z,10.63
2023-04-12T23:56:13.668Z,10.40
2023-04-12T23:58:44.732Z,10.47
